sensor_id;sensor_type;location;lat;lon;timestamp;P1;durP1;ratioP1;P2;durP2;ratioP2
2866;SDS011;1441;48.886;8.728;2024-03-02T00:00:57;4.50;;;3.13;;
2866;SDS011;1441;48.886;8.728;2024-03-02T00:03:23;6.30;;;3.27;;
2866;SDS011;1441;48.886;8.728;2024-03-02T00:05:51;4.00;;;3.10;;
2866;SDS011;1441;48.886;8.728;2024-03-02T00:08:19;3.10;;;2.90;;
2866;SDS011;1441;48.886;8.728;2024-03-02T00:10:49;7.53;;;3.23;;
2866;SDS011;1441;48.886;8.728;2024-03-02T00:13:15;3.47;;;3.17;;
2866;SDS011;1441;48.886;8.728;2024-03-02T00:18:16;4.63;;;3.10;;
2866;SDS011;1441;48.886;8.728;2024-03-02T00:20:44;4.17;;;3.13;;
2866;SDS011;1441;48.886;8.728;2024-03-02T00:23:11;3.80;;;3.27;;
2866;SDS011;1441;48.886;8.728;2024-03-02T00:28:20;6.57;;;2.97;;
2866;SDS011;1441;48.886;8.728;2024-03-02T00:33:27;3.97;;;2.97;;
2866;SDS011;1441;48.886;8.728;2024-03-02T00:35:56;3.80;;;3.13;;
2866;SDS011;1441;48.886;8.728;2024-03-02T00:38:22;5.03;;;3.30;;
2866;SDS011;1441;48.886;8.728;2024-03-02T00:40:49;3.30;;;3.00;;
2866;SDS011;1441;48.886;8.728;2024-03-02T00:46:03;9.27;;;3.20;;
2866;SDS011;1441;48.886;8.728;2024-03-02T00:48:29;3.57;;;2.70;;
2866;SDS011;1441;48.886;8.728;2024-03-02T00:51:01;3.97;;;3.20;;
2866;SDS011;1441;48.886;8.728;2024-03-02T00:53:31;6.23;;;3.23;;
2866;SDS011;1441;48.886;8.728;2024-03-02T00:56:00;3.10;;;2.80;;
2866;SDS011;1441;48.886;8.728;2024-03-02T00:58:26;2.90;;;2.70;;
2866;SDS011;1441;48.886;8.728;2024-03-02T01:00:52;4.23;;;2.93;;
2866;SDS011;1441;48.886;8.728;2024-03-02T01:03:17;3.13;;;2.83;;
2866;SDS011;1441;48.886;8.728;2024-03-02T01:05:44;3.93;;;2.60;;
2866;SDS011;1441;48.886;8.728;2024-03-02T01:08:10;3.07;;;2.77;;
2866;SDS011;1441;48.886;8.728;2024-03-02T01:10:36;3.20;;;2.90;;
2866;SDS011;1441;48.886;8.728;2024-03-02T01:13:01;4.77;;;3.00;;
2866;SDS011;1441;48.886;8.728;2024-03-02T01:15:27;3.60;;;2.80;;
2866;SDS011;1441;48.886;8.728;2024-03-02T01:17:52;2.53;;;2.33;;
2866;SDS011;1441;48.886;8.728;2024-03-02T01:20:18;2.93;;;2.70;;
2866;SDS011;1441;48.886;8.728;2024-03-02T01:22:43;4.30;;;3.27;;
2866;SDS011;1441;48.886;8.728;2024-03-02T01:25:09;4.00;;;3.20;;
2866;SDS011;1441;48.886;8.728;2024-03-02T01:27:35;3.07;;;2.77;;
2866;SDS011;1441;48.886;8.728;2024-03-02T01:30:00;3.13;;;2.93;;
2866;SDS011;1441;48.886;8.728;2024-03-02T01:32:26;3.20;;;2.90;;
2866;SDS011;1441;48.886;8.728;2024-03-02T01:34:51;7.33;;;4.37;;
2866;SDS011;1441;48.886;8.728;2024-03-02T01:37:17;4.40;;;4.00;;
2866;SDS011;1441;48.886;8.728;2024-03-02T01:39:43;4.20;;;3.40;;
2866;SDS011;1441;48.886;8.728;2024-03-02T01:42:08;4.10;;;3.27;;
2866;SDS011;1441;48.886;8.728;2024-03-02T01:44:35;4.03;;;3.30;;
2866;SDS011;1441;48.886;8.728;2024-03-02T01:47:01;5.10;;;4.20;;
2866;SDS011;1441;48.886;8.728;2024-03-02T01:49:27;3.50;;;2.90;;
2866;SDS011;1441;48.886;8.728;2024-03-02T01:51:52;4.63;;;3.10;;
2866;SDS011;1441;48.886;8.728;2024-03-02T01:54:18;3.10;;;2.80;;
2866;SDS011;1441;48.886;8.728;2024-03-02T01:56:43;3.97;;;3.03;;
2866;SDS011;1441;48.886;8.728;2024-03-02T01:59:10;2.67;;;2.40;;
2866;SDS011;1441;48.886;8.728;2024-03-02T02:01:36;4.40;;;3.00;;
2866;SDS011;1441;48.886;8.728;2024-03-02T02:04:01;3.57;;;2.90;;
2866;SDS011;1441;48.886;8.728;2024-03-02T02:06:27;3.23;;;2.93;;
2866;SDS011;1441;48.886;8.728;2024-03-02T02:08:53;3.43;;;3.07;;
2866;SDS011;1441;48.886;8.728;2024-03-02T02:11:18;4.17;;;2.80;;
2866;SDS011;1441;48.886;8.728;2024-03-02T02:13:44;4.33;;;2.97;;
2866;SDS011;1441;48.886;8.728;2024-03-02T02:16:09;6.03;;;3.73;;
2866;SDS011;1441;48.886;8.728;2024-03-02T02:18:35;3.50;;;3.20;;
2866;SDS011;1441;48.886;8.728;2024-03-02T02:21:01;4.80;;;3.83;;
2866;SDS011;1441;48.886;8.728;2024-03-02T02:23:27;3.93;;;3.40;;
2866;SDS011;1441;48.886;8.728;2024-03-02T02:25:52;4.13;;;3.73;;
2866;SDS011;1441;48.886;8.728;2024-03-02T02:28:18;3.80;;;3.40;;
2866;SDS011;1441;48.886;8.728;2024-03-02T02:30:43;6.47;;;4.43;;
2866;SDS011;1441;48.886;8.728;2024-03-02T02:33:09;5.60;;;4.77;;
2866;SDS011;1441;48.886;8.728;2024-03-02T02:35:34;3.67;;;3.37;;
2866;SDS011;1441;48.886;8.728;2024-03-02T02:38:00;3.50;;;3.00;;
2866;SDS011;1441;48.886;8.728;2024-03-02T02:40:27;6.60;;;3.57;;
2866;SDS011;1441;48.886;8.728;2024-03-02T02:42:55;6.07;;;3.20;;
2866;SDS011;1441;48.886;8.728;2024-03-02T02:45:21;3.50;;;2.83;;
2866;SDS011;1441;48.886;8.728;2024-03-02T02:47:47;3.60;;;3.30;;
2866;SDS011;1441;48.886;8.728;2024-03-02T02:50:13;3.53;;;3.23;;
2866;SDS011;1441;48.886;8.728;2024-03-02T02:52:39;3.43;;;3.10;;
2866;SDS011;1441;48.886;8.728;2024-03-02T02:55:06;4.40;;;3.43;;
2866;SDS011;1441;48.886;8.728;2024-03-02T02:57:34;4.80;;;3.87;;
2866;SDS011;1441;48.886;8.728;2024-03-02T03:00:08;6.07;;;3.80;;
2866;SDS011;1441;48.886;8.728;2024-03-02T03:02:36;8.00;;;3.97;;
2866;SDS011;1441;48.886;8.728;2024-03-02T03:05:02;4.37;;;3.67;;
2866;SDS011;1441;48.886;8.728;2024-03-02T03:07:29;4.03;;;3.27;;
2866;SDS011;1441;48.886;8.728;2024-03-02T03:09:54;5.20;;;3.87;;
2866;SDS011;1441;48.886;8.728;2024-03-02T03:12:20;4.93;;;3.30;;
2866;SDS011;1441;48.886;8.728;2024-03-02T03:14:45;4.63;;;3.30;;
2866;SDS011;1441;48.886;8.728;2024-03-02T03:17:11;4.07;;;3.67;;
2866;SDS011;1441;48.886;8.728;2024-03-02T03:19:38;3.80;;;2.90;;
2866;SDS011;1441;48.886;8.728;2024-03-02T03:22:03;3.00;;;2.80;;
2866;SDS011;1441;48.886;8.728;2024-03-02T03:24:29;4.00;;;3.23;;
2866;SDS011;1441;48.886;8.728;2024-03-02T03:26:55;5.20;;;3.43;;
2866;SDS011;1441;48.886;8.728;2024-03-02T03:29:20;5.20;;;3.67;;
2866;SDS011;1441;48.886;8.728;2024-03-02T03:31:46;4.97;;;4.20;;
2866;SDS011;1441;48.886;8.728;2024-03-02T03:34:11;4.20;;;3.63;;
2866;SDS011;1441;48.886;8.728;2024-03-02T03:36:40;4.50;;;3.80;;
2866;SDS011;1441;48.886;8.728;2024-03-02T03:39:06;5.80;;;3.43;;
2866;SDS011;1441;48.886;8.728;2024-03-02T03:41:32;10.47;;;4.70;;
2866;SDS011;1441;48.886;8.728;2024-03-02T03:43:57;5.77;;;4.30;;
2866;SDS011;1441;48.886;8.728;2024-03-02T03:46:23;10.00;;;4.10;;
2866;SDS011;1441;48.886;8.728;2024-03-02T03:48:49;5.57;;;4.40;;
2866;SDS011;1441;48.886;8.728;2024-03-02T03:51:14;6.07;;;5.07;;
2866;SDS011;1441;48.886;8.728;2024-03-02T03:53:40;5.97;;;4.63;;
2866;SDS011;1441;48.886;8.728;2024-03-02T03:56:05;6.10;;;4.73;;
2866;SDS011;1441;48.886;8.728;2024-03-02T03:58:31;4.77;;;3.97;;
2866;SDS011;1441;48.886;8.728;2024-03-02T04:00:57;5.33;;;4.23;;
2866;SDS011;1441;48.886;8.728;2024-03-02T04:03:22;5.27;;;4.00;;
2866;SDS011;1441;48.886;8.728;2024-03-02T04:05:48;4.57;;;4.07;;
2866;SDS011;1441;48.886;8.728;2024-03-02T04:08:13;5.70;;;4.30;;
2866;SDS011;1441;48.886;8.728;2024-03-02T04:10:39;6.60;;;5.27;;
2866;SDS011;1441;48.886;8.728;2024-03-02T04:13:05;10.50;;;4.50;;
2866;SDS011;1441;48.886;8.728;2024-03-02T04:15:31;9.50;;;4.70;;
2866;SDS011;1441;48.886;8.728;2024-03-02T04:17:56;5.37;;;4.20;;
2866;SDS011;1441;48.886;8.728;2024-03-02T04:20:22;7.00;;;4.57;;
2866;SDS011;1441;48.886;8.728;2024-03-02T04:22:47;9.73;;;5.67;;
2866;SDS011;1441;48.886;8.728;2024-03-02T04:25:13;5.03;;;4.40;;
2866;SDS011;1441;48.886;8.728;2024-03-02T04:27:39;8.67;;;5.30;;
2866;SDS011;1441;48.886;8.728;2024-03-02T04:30:06;7.20;;;4.90;;
2866;SDS011;1441;48.886;8.728;2024-03-02T04:32:32;5.87;;;4.83;;
2866;SDS011;1441;48.886;8.728;2024-03-02T04:34:57;8.20;;;4.57;;
2866;SDS011;1441;48.886;8.728;2024-03-02T04:37:23;9.60;;;5.20;;
2866;SDS011;1441;48.886;8.728;2024-03-02T04:39:48;8.80;;;5.30;;
2866;SDS011;1441;48.886;8.728;2024-03-02T04:42:14;7.40;;;5.33;;
2866;SDS011;1441;48.886;8.728;2024-03-02T04:44:39;9.20;;;5.20;;
2866;SDS011;1441;48.886;8.728;2024-03-02T04:47:05;8.03;;;5.00;;
2866;SDS011;1441;48.886;8.728;2024-03-02T04:49:31;6.73;;;4.57;;
2866;SDS011;1441;48.886;8.728;2024-03-02T04:51:56;7.07;;;5.40;;
2866;SDS011;1441;48.886;8.728;2024-03-02T04:54:22;6.47;;;4.37;;
2866;SDS011;1441;48.886;8.728;2024-03-02T04:56:47;5.17;;;4.20;;
2866;SDS011;1441;48.886;8.728;2024-03-02T04:59:19;6.57;;;5.00;;
2866;SDS011;1441;48.886;8.728;2024-03-02T05:01:45;8.57;;;5.80;;
2866;SDS011;1441;48.886;8.728;2024-03-02T05:04:11;6.90;;;5.23;;
2866;SDS011;1441;48.886;8.728;2024-03-02T05:06:37;8.17;;;4.90;;
2866;SDS011;1441;48.886;8.728;2024-03-02T05:09:04;7.77;;;5.70;;
2866;SDS011;1441;48.886;8.728;2024-03-02T05:11:29;6.53;;;4.40;;
2866;SDS011;1441;48.886;8.728;2024-03-02T05:14:04;6.53;;;4.43;;
2866;SDS011;1441;48.886;8.728;2024-03-02T05:16:34;4.30;;;3.63;;
2866;SDS011;1441;48.886;8.728;2024-03-02T05:19:00;9.70;;;5.30;;
2866;SDS011;1441;48.886;8.728;2024-03-02T05:21:25;8.40;;;4.20;;
2866;SDS011;1441;48.886;8.728;2024-03-02T05:23:51;7.57;;;4.77;;
2866;SDS011;1441;48.886;8.728;2024-03-02T05:26:17;7.10;;;5.40;;
2866;SDS011;1441;48.886;8.728;2024-03-02T05:28:42;5.50;;;4.63;;
2866;SDS011;1441;48.886;8.728;2024-03-02T05:31:11;5.73;;;4.53;;
2866;SDS011;1441;48.886;8.728;2024-03-02T05:33:40;5.70;;;4.53;;
2866;SDS011;1441;48.886;8.728;2024-03-02T05:36:06;5.20;;;4.20;;
2866;SDS011;1441;48.886;8.728;2024-03-02T05:38:32;5.70;;;4.27;;
2866;SDS011;1441;48.886;8.728;2024-03-02T05:40:59;6.27;;;3.80;;
2866;SDS011;1441;48.886;8.728;2024-03-02T05:43:25;5.47;;;4.10;;
2866;SDS011;1441;48.886;8.728;2024-03-02T05:45:50;4.20;;;3.77;;
2866;SDS011;1441;48.886;8.728;2024-03-02T05:48:16;4.00;;;3.60;;
2866;SDS011;1441;48.886;8.728;2024-03-02T05:50:42;4.50;;;3.27;;
2866;SDS011;1441;48.886;8.728;2024-03-02T05:53:07;4.03;;;3.63;;
2866;SDS011;1441;48.886;8.728;2024-03-02T05:55:33;4.20;;;3.10;;
2866;SDS011;1441;48.886;8.728;2024-03-02T05:57:58;4.30;;;3.90;;
2866;SDS011;1441;48.886;8.728;2024-03-02T06:00:42;3.47;;;2.77;;
2866;SDS011;1441;48.886;8.728;2024-03-02T06:03:08;4.67;;;3.53;;
2866;SDS011;1441;48.886;8.728;2024-03-02T06:05:35;4.20;;;3.37;;
2866;SDS011;1441;48.886;8.728;2024-03-02T06:08:01;3.13;;;2.70;;
2866;SDS011;1441;48.886;8.728;2024-03-02T06:10:26;3.07;;;2.77;;
2866;SDS011;1441;48.886;8.728;2024-03-02T06:12:52;3.30;;;2.90;;
2866;SDS011;1441;48.886;8.728;2024-03-02T06:15:17;3.90;;;2.93;;
2866;SDS011;1441;48.886;8.728;2024-03-02T06:17:43;4.10;;;2.47;;
2866;SDS011;1441;48.886;8.728;2024-03-02T06:20:09;4.47;;;3.20;;
2866;SDS011;1441;48.886;8.728;2024-03-02T06:22:35;2.97;;;2.70;;
2866;SDS011;1441;48.886;8.728;2024-03-02T06:25:01;3.70;;;2.87;;
2866;SDS011;1441;48.886;8.728;2024-03-02T06:27:27;3.97;;;3.27;;
2866;SDS011;1441;48.886;8.728;2024-03-02T06:29:52;3.43;;;2.77;;
2866;SDS011;1441;48.886;8.728;2024-03-02T06:32:18;3.53;;;2.60;;
2866;SDS011;1441;48.886;8.728;2024-03-02T06:34:44;7.13;;;3.67;;
2866;SDS011;1441;48.886;8.728;2024-03-02T06:37:09;3.83;;;3.40;;
2866;SDS011;1441;48.886;8.728;2024-03-02T06:39:35;5.07;;;2.87;;
2866;SDS011;1441;48.886;8.728;2024-03-02T06:42:01;3.87;;;2.97;;
2866;SDS011;1441;48.886;8.728;2024-03-02T06:44:26;3.37;;;3.07;;
2866;SDS011;1441;48.886;8.728;2024-03-02T06:46:52;3.03;;;2.47;;
2866;SDS011;1441;48.886;8.728;2024-03-02T06:49:17;3.63;;;2.70;;
2866;SDS011;1441;48.886;8.728;2024-03-02T06:51:43;4.10;;;3.03;;
2866;SDS011;1441;48.886;8.728;2024-03-02T06:54:09;2.80;;;2.60;;
2866;SDS011;1441;48.886;8.728;2024-03-02T06:56:35;2.70;;;2.50;;
2866;SDS011;1441;48.886;8.728;2024-03-02T06:59:01;2.40;;;2.20;;
2866;SDS011;1441;48.886;8.728;2024-03-02T07:01:26;2.87;;;2.67;;
2866;SDS011;1441;48.886;8.728;2024-03-02T07:03:53;2.80;;;2.40;;
2866;SDS011;1441;48.886;8.728;2024-03-02T07:06:18;2.73;;;2.30;;
2866;SDS011;1441;48.886;8.728;2024-03-02T07:08:44;3.00;;;2.70;;
2866;SDS011;1441;48.886;8.728;2024-03-02T07:11:09;3.17;;;2.90;;
2866;SDS011;1441;48.886;8.728;2024-03-02T07:13:35;2.90;;;2.37;;
2866;SDS011;1441;48.886;8.728;2024-03-02T07:16:00;2.37;;;2.17;;
2866;SDS011;1441;48.886;8.728;2024-03-02T07:18:29;4.03;;;2.60;;
2866;SDS011;1441;48.886;8.728;2024-03-02T07:20:56;3.37;;;2.40;;
2866;SDS011;1441;48.886;8.728;2024-03-02T07:23:24;2.93;;;2.47;;
2866;SDS011;1441;48.886;8.728;2024-03-02T07:25:52;3.53;;;3.23;;
2866;SDS011;1441;48.886;8.728;2024-03-02T07:28:21;2.77;;;2.57;;
2866;SDS011;1441;48.886;8.728;2024-03-02T07:31:02;3.70;;;2.53;;
2866;SDS011;1441;48.886;8.728;2024-03-02T07:33:29;1.93;;;1.73;;
2866;SDS011;1441;48.886;8.728;2024-03-02T07:35:55;4.63;;;2.60;;
2866;SDS011;1441;48.886;8.728;2024-03-02T07:38:22;3.70;;;2.63;;
2866;SDS011;1441;48.886;8.728;2024-03-02T07:40:48;2.17;;;2.07;;
2866;SDS011;1441;48.886;8.728;2024-03-02T07:43:18;2.93;;;2.50;;
2866;SDS011;1441;48.886;8.728;2024-03-02T07:45:44;2.67;;;2.20;;
2866;SDS011;1441;48.886;8.728;2024-03-02T07:48:10;2.70;;;2.03;;
2866;SDS011;1441;48.886;8.728;2024-03-02T07:50:36;3.87;;;2.93;;
2866;SDS011;1441;48.886;8.728;2024-03-02T07:53:02;2.30;;;2.07;;
2866;SDS011;1441;48.886;8.728;2024-03-02T07:55:28;4.10;;;2.53;;
2866;SDS011;1441;48.886;8.728;2024-03-02T07:57:55;2.10;;;2.00;;
2866;SDS011;1441;48.886;8.728;2024-03-02T08:00:21;3.10;;;2.10;;
2866;SDS011;1441;48.886;8.728;2024-03-02T08:02:47;2.90;;;2.70;;
2866;SDS011;1441;48.886;8.728;2024-03-02T08:05:16;2.90;;;2.70;;
2866;SDS011;1441;48.886;8.728;2024-03-02T08:07:43;2.60;;;2.40;;
2866;SDS011;1441;48.886;8.728;2024-03-02T08:10:09;2.60;;;2.40;;
2866;SDS011;1441;48.886;8.728;2024-03-02T08:12:35;5.27;;;2.63;;
2866;SDS011;1441;48.886;8.728;2024-03-02T08:15:01;2.67;;;2.47;;
2866;SDS011;1441;48.886;8.728;2024-03-02T08:17:26;2.50;;;2.30;;
2866;SDS011;1441;48.886;8.728;2024-03-02T08:19:52;2.40;;;2.30;;
2866;SDS011;1441;48.886;8.728;2024-03-02T08:22:18;2.60;;;2.40;;
2866;SDS011;1441;48.886;8.728;2024-03-02T08:24:44;2.83;;;2.53;;
2866;SDS011;1441;48.886;8.728;2024-03-02T08:27:10;1.90;;;1.77;;
2866;SDS011;1441;48.886;8.728;2024-03-02T08:29:35;2.53;;;2.33;;
2866;SDS011;1441;48.886;8.728;2024-03-02T08:32:01;2.03;;;1.93;;
2866;SDS011;1441;48.886;8.728;2024-03-02T08:34:27;2.57;;;2.37;;
2866;SDS011;1441;48.886;8.728;2024-03-02T08:36:53;2.10;;;1.90;;
2866;SDS011;1441;48.886;8.728;2024-03-02T08:39:18;2.07;;;1.97;;
2866;SDS011;1441;48.886;8.728;2024-03-02T08:41:45;2.77;;;1.93;;
2866;SDS011;1441;48.886;8.728;2024-03-02T08:44:11;1.77;;;1.53;;
2866;SDS011;1441;48.886;8.728;2024-03-02T08:46:37;1.60;;;1.50;;
2866;SDS011;1441;48.886;8.728;2024-03-02T08:49:03;1.47;;;1.37;;
2866;SDS011;1441;48.886;8.728;2024-03-02T08:51:29;1.40;;;1.20;;
2866;SDS011;1441;48.886;8.728;2024-03-02T08:53:54;1.60;;;1.30;;
2866;SDS011;1441;48.886;8.728;2024-03-02T08:56:20;0.90;;;0.90;;
2866;SDS011;1441;48.886;8.728;2024-03-02T08:58:46;1.50;;;1.40;;
2866;SDS011;1441;48.886;8.728;2024-03-02T09:01:12;1.73;;;1.33;;
2866;SDS011;1441;48.886;8.728;2024-03-02T09:03:37;1.37;;;1.13;;
2866;SDS011;1441;48.886;8.728;2024-03-02T09:06:03;0.90;;;0.90;;
2866;SDS011;1441;48.886;8.728;2024-03-02T09:08:29;1.43;;;1.33;;
2866;SDS011;1441;48.886;8.728;2024-03-02T09:10:55;2.53;;;1.10;;
2866;SDS011;1441;48.886;8.728;2024-03-02T09:13:21;0.90;;;0.90;;
2866;SDS011;1441;48.886;8.728;2024-03-02T09:15:47;1.40;;;0.90;;
2866;SDS011;1441;48.886;8.728;2024-03-02T09:18:13;1.17;;;1.13;;
2866;SDS011;1441;48.886;8.728;2024-03-02T09:20:38;1.10;;;1.00;;
2866;SDS011;1441;48.886;8.728;2024-03-02T09:23:04;2.30;;;1.30;;
2866;SDS011;1441;48.886;8.728;2024-03-02T09:25:29;1.30;;;1.20;;
2866;SDS011;1441;48.886;8.728;2024-03-02T09:27:55;1.20;;;1.20;;
2866;SDS011;1441;48.886;8.728;2024-03-02T09:30:21;1.43;;;1.33;;
2866;SDS011;1441;48.886;8.728;2024-03-02T09:32:47;5.03;;;1.50;;
2866;SDS011;1441;48.886;8.728;2024-03-02T09:35:12;1.37;;;1.27;;
2866;SDS011;1441;48.886;8.728;2024-03-02T09:37:38;1.20;;;1.10;;
2866;SDS011;1441;48.886;8.728;2024-03-02T09:40:04;1.40;;;1.30;;
2866;SDS011;1441;48.886;8.728;2024-03-02T09:42:31;1.43;;;1.40;;
2866;SDS011;1441;48.886;8.728;2024-03-02T09:44:57;1.70;;;1.60;;
2866;SDS011;1441;48.886;8.728;2024-03-02T09:47:23;1.40;;;1.30;;
2866;SDS011;1441;48.886;8.728;2024-03-02T09:49:49;1.03;;;1.03;;
2866;SDS011;1441;48.886;8.728;2024-03-02T09:52:14;1.13;;;1.13;;
2866;SDS011;1441;48.886;8.728;2024-03-02T09:54:41;1.43;;;1.00;;
2866;SDS011;1441;48.886;8.728;2024-03-02T09:57:06;1.30;;;1.20;;
2866;SDS011;1441;48.886;8.728;2024-03-02T09:59:32;1.03;;;0.93;;
2866;SDS011;1441;48.886;8.728;2024-03-02T10:02:02;0.70;;;0.70;;
2866;SDS011;1441;48.886;8.728;2024-03-02T10:04:28;0.80;;;0.80;;
2866;SDS011;1441;48.886;8.728;2024-03-02T10:07:19;0.97;;;0.87;;
2866;SDS011;1441;48.886;8.728;2024-03-02T10:09:45;1.07;;;0.90;;
2866;SDS011;1441;48.886;8.728;2024-03-02T10:12:12;0.70;;;0.70;;
2866;SDS011;1441;48.886;8.728;2024-03-02T10:14:40;0.93;;;0.70;;
2866;SDS011;1441;48.886;8.728;2024-03-02T10:17:11;1.00;;;0.60;;
2866;SDS011;1441;48.886;8.728;2024-03-02T10:19:37;0.80;;;0.80;;
2866;SDS011;1441;48.886;8.728;2024-03-02T10:22:04;0.63;;;0.63;;
2866;SDS011;1441;48.886;8.728;2024-03-02T10:24:35;0.73;;;0.73;;
2866;SDS011;1441;48.886;8.728;2024-03-02T10:27:25;0.80;;;0.80;;
2866;SDS011;1441;48.886;8.728;2024-03-02T10:29:52;0.80;;;0.70;;
2866;SDS011;1441;48.886;8.728;2024-03-02T10:32:18;0.70;;;0.70;;
2866;SDS011;1441;48.886;8.728;2024-03-02T10:34:47;0.63;;;0.63;;
2866;SDS011;1441;48.886;8.728;2024-03-02T10:37:13;0.60;;;0.60;;
2866;SDS011;1441;48.886;8.728;2024-03-02T10:39:40;0.57;;;0.57;;
2866;SDS011;1441;48.886;8.728;2024-03-02T10:42:05;0.60;;;0.60;;
2866;SDS011;1441;48.886;8.728;2024-03-02T10:44:32;1.13;;;0.60;;
2866;SDS011;1441;48.886;8.728;2024-03-02T10:47:02;0.50;;;0.50;;
2866;SDS011;1441;48.886;8.728;2024-03-02T10:49:29;0.80;;;0.80;;
2866;SDS011;1441;48.886;8.728;2024-03-02T10:51:56;0.50;;;0.50;;
2866;SDS011;1441;48.886;8.728;2024-03-02T10:54:23;2.47;;;0.60;;
2866;SDS011;1441;48.886;8.728;2024-03-02T10:56:53;0.57;;;0.57;;
2866;SDS011;1441;48.886;8.728;2024-03-02T10:59:27;0.90;;;0.60;;
2866;SDS011;1441;48.886;8.728;2024-03-02T11:01:58;0.57;;;0.57;;
2866;SDS011;1441;48.886;8.728;2024-03-02T11:04:28;1.27;;;0.50;;
2866;SDS011;1441;48.886;8.728;2024-03-02T11:06:58;0.60;;;0.60;;
2866;SDS011;1441;48.886;8.728;2024-03-02T11:09:28;0.60;;;0.40;;
2866;SDS011;1441;48.886;8.728;2024-03-02T11:12:02;1.00;;;0.57;;
2866;SDS011;1441;48.886;8.728;2024-03-02T11:14:30;0.40;;;0.40;;
2866;SDS011;1441;48.886;8.728;2024-03-02T11:17:00;0.40;;;0.40;;
2866;SDS011;1441;48.886;8.728;2024-03-02T11:19:28;0.60;;;0.60;;
2866;SDS011;1441;48.886;8.728;2024-03-02T11:21:54;0.50;;;0.50;;
2866;SDS011;1441;48.886;8.728;2024-03-02T11:26:46;0.30;;;0.30;;
2866;SDS011;1441;48.886;8.728;2024-03-02T11:32:00;0.60;;;0.60;;
2866;SDS011;1441;48.886;8.728;2024-03-02T11:34:29;0.50;;;0.50;;
2866;SDS011;1441;48.886;8.728;2024-03-02T11:36:56;2.10;;;0.70;;
2866;SDS011;1441;48.886;8.728;2024-03-02T11:39:28;0.60;;;0.60;;
2866;SDS011;1441;48.886;8.728;2024-03-02T11:41:54;0.60;;;0.60;;
2866;SDS011;1441;48.886;8.728;2024-03-02T11:44:21;0.60;;;0.53;;
2866;SDS011;1441;48.886;8.728;2024-03-02T11:46:51;0.77;;;0.60;;
2866;SDS011;1441;48.886;8.728;2024-03-02T11:52:04;1.57;;;0.60;;
2866;SDS011;1441;48.886;8.728;2024-03-02T11:54:32;0.60;;;0.60;;
2866;SDS011;1441;48.886;8.728;2024-03-02T11:56:59;0.60;;;0.60;;
2866;SDS011;1441;48.886;8.728;2024-03-02T11:59:27;2.00;;;0.50;;
2866;SDS011;1441;48.886;8.728;2024-03-02T12:01:54;1.30;;;0.73;;
2866;SDS011;1441;48.886;8.728;2024-03-02T12:04:21;0.70;;;0.70;;
2866;SDS011;1441;48.886;8.728;2024-03-02T12:06:48;0.80;;;0.80;;
2866;SDS011;1441;48.886;8.728;2024-03-02T12:09:20;0.80;;;0.77;;
2866;SDS011;1441;48.886;8.728;2024-03-02T12:11:46;1.47;;;0.93;;
2866;SDS011;1441;48.886;8.728;2024-03-02T12:14:12;0.73;;;0.73;;
2866;SDS011;1441;48.886;8.728;2024-03-02T12:16:46;0.63;;;0.63;;
2866;SDS011;1441;48.886;8.728;2024-03-02T12:19:12;0.50;;;0.50;;
2866;SDS011;1441;48.886;8.728;2024-03-02T12:21:38;0.87;;;0.80;;
2866;SDS011;1441;48.886;8.728;2024-03-02T12:24:04;0.80;;;0.80;;
2866;SDS011;1441;48.886;8.728;2024-03-02T12:26:29;0.73;;;0.70;;
2866;SDS011;1441;48.886;8.728;2024-03-02T12:28:55;1.73;;;0.80;;
2866;SDS011;1441;48.886;8.728;2024-03-02T12:31:22;0.87;;;0.60;;
2866;SDS011;1441;48.886;8.728;2024-03-02T12:33:47;0.70;;;0.70;;
2866;SDS011;1441;48.886;8.728;2024-03-02T12:36:13;1.17;;;1.00;;
2866;SDS011;1441;48.886;8.728;2024-03-02T12:38:45;0.77;;;0.77;;
2866;SDS011;1441;48.886;8.728;2024-03-02T12:41:14;0.77;;;0.77;;
2866;SDS011;1441;48.886;8.728;2024-03-02T12:43:40;1.00;;;0.90;;
2866;SDS011;1441;48.886;8.728;2024-03-02T12:46:06;0.77;;;0.77;;
2866;SDS011;1441;48.886;8.728;2024-03-02T12:48:31;0.80;;;0.80;;
2866;SDS011;1441;48.886;8.728;2024-03-02T12:50:58;1.00;;;0.70;;
2866;SDS011;1441;48.886;8.728;2024-03-02T12:53:23;0.90;;;0.90;;
2866;SDS011;1441;48.886;8.728;2024-03-02T12:55:49;0.70;;;0.70;;
2866;SDS011;1441;48.886;8.728;2024-03-02T12:58:19;0.80;;;0.80;;
2866;SDS011;1441;48.886;8.728;2024-03-02T13:00:46;1.43;;;0.90;;
2866;SDS011;1441;48.886;8.728;2024-03-02T13:03:12;2.13;;;0.93;;
2866;SDS011;1441;48.886;8.728;2024-03-02T13:05:39;0.80;;;0.80;;
2866;SDS011;1441;48.886;8.728;2024-03-02T13:08:05;1.10;;;1.10;;
2866;SDS011;1441;48.886;8.728;2024-03-02T13:10:32;0.70;;;0.70;;
2866;SDS011;1441;48.886;8.728;2024-03-02T13:12:57;0.60;;;0.60;;
2866;SDS011;1441;48.886;8.728;2024-03-02T13:15:23;0.77;;;0.77;;
2866;SDS011;1441;48.886;8.728;2024-03-02T13:17:51;0.83;;;0.70;;
2866;SDS011;1441;48.886;8.728;2024-03-02T13:20:16;1.20;;;1.10;;
2866;SDS011;1441;48.886;8.728;2024-03-02T13:22:43;0.90;;;0.90;;
2866;SDS011;1441;48.886;8.728;2024-03-02T13:25:09;0.67;;;0.67;;
2866;SDS011;1441;48.886;8.728;2024-03-02T13:27:35;0.70;;;0.70;;
2866;SDS011;1441;48.886;8.728;2024-03-02T13:30:02;0.80;;;0.80;;
2866;SDS011;1441;48.886;8.728;2024-03-02T13:32:28;1.17;;;0.80;;
2866;SDS011;1441;48.886;8.728;2024-03-02T13:34:54;1.33;;;0.73;;
2866;SDS011;1441;48.886;8.728;2024-03-02T13:37:22;1.03;;;0.70;;
2866;SDS011;1441;48.886;8.728;2024-03-02T13:39:48;1.60;;;0.90;;
2866;SDS011;1441;48.886;8.728;2024-03-02T13:42:13;0.80;;;0.60;;
2866;SDS011;1441;48.886;8.728;2024-03-02T13:44:40;1.27;;;0.80;;
2866;SDS011;1441;48.886;8.728;2024-03-02T13:47:09;0.70;;;0.70;;
2866;SDS011;1441;48.886;8.728;2024-03-02T13:49:35;0.60;;;0.60;;
2866;SDS011;1441;48.886;8.728;2024-03-02T13:52:07;0.73;;;0.73;;
2866;SDS011;1441;48.886;8.728;2024-03-02T13:54:38;0.90;;;0.90;;
2866;SDS011;1441;48.886;8.728;2024-03-02T13:57:08;0.80;;;0.80;;
2866;SDS011;1441;48.886;8.728;2024-03-02T13:59:35;0.80;;;0.80;;
2866;SDS011;1441;48.886;8.728;2024-03-02T14:02:01;0.70;;;0.70;;
2866;SDS011;1441;48.886;8.728;2024-03-02T14:04:30;0.60;;;0.60;;
2866;SDS011;1441;48.886;8.728;2024-03-02T14:06:56;0.90;;;0.80;;
2866;SDS011;1441;48.886;8.728;2024-03-02T14:09:22;0.60;;;0.60;;
2866;SDS011;1441;48.886;8.728;2024-03-02T14:11:49;0.77;;;0.77;;
2866;SDS011;1441;48.886;8.728;2024-03-02T14:14:15;0.60;;;0.60;;
2866;SDS011;1441;48.886;8.728;2024-03-02T14:16:41;0.70;;;0.70;;
2866;SDS011;1441;48.886;8.728;2024-03-02T14:19:06;0.70;;;0.70;;
2866;SDS011;1441;48.886;8.728;2024-03-02T14:21:32;0.70;;;0.70;;
2866;SDS011;1441;48.886;8.728;2024-03-02T14:23:58;0.93;;;0.93;;
2866;SDS011;1441;48.886;8.728;2024-03-02T14:26:24;0.90;;;0.90;;
2866;SDS011;1441;48.886;8.728;2024-03-02T14:28:49;1.17;;;0.80;;
2866;SDS011;1441;48.886;8.728;2024-03-02T14:31:15;0.90;;;0.90;;
2866;SDS011;1441;48.886;8.728;2024-03-02T14:33:41;1.27;;;0.80;;
2866;SDS011;1441;48.886;8.728;2024-03-02T14:36:07;0.80;;;0.70;;
2866;SDS011;1441;48.886;8.728;2024-03-02T14:38:33;0.70;;;0.70;;
2866;SDS011;1441;48.886;8.728;2024-03-02T14:40:58;2.10;;;0.90;;
2866;SDS011;1441;48.886;8.728;2024-03-02T14:43:24;0.80;;;0.80;;
2866;SDS011;1441;48.886;8.728;2024-03-02T14:45:49;0.87;;;0.87;;
2866;SDS011;1441;48.886;8.728;2024-03-02T14:48:15;0.80;;;0.80;;
2866;SDS011;1441;48.886;8.728;2024-03-02T14:50:41;0.80;;;0.80;;
2866;SDS011;1441;48.886;8.728;2024-03-02T14:53:07;1.90;;;0.80;;
2866;SDS011;1441;48.886;8.728;2024-03-02T14:55:33;0.87;;;0.87;;
2866;SDS011;1441;48.886;8.728;2024-03-02T14:58:01;1.47;;;0.70;;
2866;SDS011;1441;48.886;8.728;2024-03-02T15:00:27;1.20;;;1.10;;
2866;SDS011;1441;48.886;8.728;2024-03-02T15:02:52;0.93;;;0.93;;
2866;SDS011;1441;48.886;8.728;2024-03-02T15:05:18;5.40;;;1.10;;
2866;SDS011;1441;48.886;8.728;2024-03-02T15:07:44;0.77;;;0.77;;
2866;SDS011;1441;48.886;8.728;2024-03-02T15:10:09;1.53;;;0.83;;
2866;SDS011;1441;48.886;8.728;2024-03-02T15:12:36;1.10;;;0.70;;
2866;SDS011;1441;48.886;8.728;2024-03-02T15:15:02;0.80;;;0.80;;
2866;SDS011;1441;48.886;8.728;2024-03-02T15:17:28;0.70;;;0.70;;
2866;SDS011;1441;48.886;8.728;2024-03-02T15:19:54;1.17;;;0.80;;
2866;SDS011;1441;48.886;8.728;2024-03-02T15:22:19;3.50;;;0.80;;
2866;SDS011;1441;48.886;8.728;2024-03-02T15:24:45;0.87;;;0.60;;
2866;SDS011;1441;48.886;8.728;2024-03-02T15:27:11;0.97;;;0.97;;
2866;SDS011;1441;48.886;8.728;2024-03-02T15:29:36;0.70;;;0.70;;